createdAt,value
2023-08-11T00:01:06.138Z,19.22
2023-08-11T00:03:34.431Z,19.21
2023-08-11T00:06:01.133Z,19.15
2023-08-11T00:08:27.908Z,19.14
2023-08-11T00:10:54.536Z,19.13
2023-08-11T00:13:21.142Z,19.14
2023-08-11T00:15:47.793Z,19.13
2023-08-11T00:18:14.430Z,19.11
2023-08-11T00:20:42.552Z,19.05
2023-08-11T00:23:09.156Z,19.10
2023-08-11T00:25:35.780Z,19.01
2023-08-11T00:28:02.392Z,18.94
2023-08-11T00:30:29.028Z,18.95
2023-08-11T00:32:55.724Z,18.98
2023-08-11T00:35:22.657Z,18.94
2023-08-11T00:37:50.868Z,18.92
2023-08-11T00:40:17.733Z,18.93
2023-08-11T00:42:44.604Z,18.86
2023-08-11T00:45:11.213Z,18.87
2023-08-11T00:47:41.036Z,18.75
2023-08-11T00:50:08.637Z,18.81
2023-08-11T00:52:35.550Z,18.77
2023-08-11T00:55:04.672Z,18.80
2023-08-11T00:57:31.293Z,18.76
2023-08-11T00:59:59.088Z,18.71
2023-08-11T01:02:25.921Z,18.63
2023-08-11T01:04:52.756Z,18.62
2023-08-11T01:07:24.217Z,18.57
2023-08-11T01:09:59.965Z,18.64
2023-08-11T01:12:35.531Z,18.59
2023-08-11T01:15:11.405Z,18.64
2023-08-11T01:17:39.974Z,18.50
2023-08-11T01:20:08.829Z,18.55
2023-08-11T01:22:37.337Z,18.60
2023-08-11T01:25:07.380Z,18.59
2023-08-11T01:27:36.031Z,18.53
2023-08-11T01:30:02.739Z,18.59
2023-08-11T01:32:29.361Z,18.57
2023-08-11T01:34:56.113Z,18.57
2023-08-11T01:37:23.012Z,18.60
2023-08-11T01:39:49.661Z,18.59
2023-08-11T01:42:17.830Z,18.61
2023-08-11T01:44:44.630Z,18.67
2023-08-11T01:47:11.595Z,18.68
2023-08-11T01:49:38.363Z,18.71
2023-08-11T01:52:05.408Z,18.71
2023-08-11T01:54:32.085Z,18.77
2023-08-11T01:56:59.181Z,18.83
2023-08-11T01:59:27.182Z,18.82
2023-08-11T02:01:53.924Z,18.82
2023-08-11T02:04:20.666Z,18.85
2023-08-11T02:06:47.261Z,18.80
2023-08-11T02:09:13.838Z,18.77
2023-08-11T02:11:40.990Z,18.78
2023-08-11T02:14:07.617Z,18.78
2023-08-11T02:16:36.875Z,18.84
2023-08-11T02:19:03.870Z,18.81
2023-08-11T02:21:30.460Z,18.80
2023-08-11T02:23:57.285Z,18.83
2023-08-11T02:26:24.016Z,18.77
2023-08-11T02:28:50.840Z,18.83
2023-08-11T02:31:17.816Z,18.87
2023-08-11T02:33:46.052Z,18.76
2023-08-11T02:36:12.764Z,18.84
2023-08-11T02:38:39.502Z,18.87
2023-08-11T02:41:06.126Z,18.87
2023-08-11T02:43:33.102Z,18.87
2023-08-11T02:45:59.719Z,18.90
2023-08-11T02:48:26.371Z,18.83
2023-08-11T02:50:54.472Z,18.83
2023-08-11T02:53:21.093Z,18.85
2023-08-11T02:55:47.692Z,18.71
2023-08-11T02:58:14.341Z,18.77
2023-08-11T03:00:40.913Z,18.67
2023-08-11T03:03:07.605Z,18.80
2023-08-11T03:05:34.659Z,18.82
2023-08-11T03:08:02.916Z,18.80
2023-08-11T03:10:32.664Z,18.80
2023-08-11T03:13:03.933Z,18.82
2023-08-11T03:15:30.651Z,18.80
2023-08-11T03:17:57.346Z,18.79
2023-08-11T03:20:24.167Z,18.75
2023-08-11T03:22:50.766Z,18.74
2023-08-11T03:25:18.744Z,18.74
2023-08-11T03:27:45.517Z,18.84
2023-08-11T03:30:13.368Z,18.80
2023-08-11T03:32:40.618Z,18.80
2023-08-11T03:35:08.122Z,18.82
2023-08-11T03:37:35.301Z,18.85
2023-08-11T03:40:02.092Z,18.87
2023-08-11T03:42:30.059Z,18.85
2023-08-11T03:44:56.887Z,18.85
2023-08-11T03:47:23.513Z,18.88
2023-08-11T03:49:50.287Z,18.85
2023-08-11T03:52:16.893Z,18.90
2023-08-11T03:54:45.552Z,18.79
2023-08-11T03:57:12.678Z,18.75
2023-08-11T03:59:40.633Z,18.70
2023-08-11T04:02:07.462Z,18.72
2023-08-11T04:04:34.393Z,18.72
2023-08-11T04:07:01.027Z,18.73
2023-08-11T04:09:27.644Z,18.78
2023-08-11T04:11:54.478Z,18.87
2023-08-11T04:14:21.089Z,18.84
2023-08-11T04:16:49.181Z,18.99
2023-08-11T04:19:15.989Z,19.08
2023-08-11T04:21:42.656Z,19.15
2023-08-11T04:24:10.163Z,19.19
2023-08-11T04:26:36.776Z,19.25
2023-08-11T04:29:03.765Z,19.39
2023-08-11T04:31:30.707Z,19.40
2023-08-11T04:33:58.744Z,19.50
2023-08-11T04:36:25.425Z,19.53
2023-08-11T04:38:52.369Z,19.66
2023-08-11T04:41:19.010Z,19.84
2023-08-11T04:43:45.696Z,19.89
2023-08-11T04:46:12.384Z,20.05
2023-08-11T04:48:39.027Z,20.16
2023-08-11T04:51:07.035Z,20.39
2023-08-11T04:53:33.786Z,20.69
2023-08-11T04:56:00.641Z,20.86
2023-08-11T04:58:27.274Z,20.96
2023-08-11T05:00:53.899Z,21.99
2023-08-11T05:03:20.783Z,22.48
2023-08-11T05:05:47.492Z,22.59
2023-08-11T05:08:15.609Z,22.82
2023-08-11T05:10:42.238Z,22.88
2023-08-11T05:13:08.868Z,22.99
2023-08-11T05:15:35.507Z,22.99
2023-08-11T05:18:02.242Z,23.27
2023-08-11T05:20:28.888Z,23.27
2023-08-11T05:22:55.493Z,23.48
2023-08-11T05:25:23.612Z,24.31
2023-08-11T05:27:50.198Z,25.34
2023-08-11T05:30:17.181Z,26.37
2023-08-11T05:32:44.076Z,26.84
2023-08-11T05:35:10.761Z,27.28
2023-08-11T05:37:37.411Z,27.69
2023-08-11T05:40:04.730Z,27.73
2023-08-11T05:42:33.783Z,27.71
2023-08-11T05:45:00.387Z,27.43
2023-08-11T05:47:27.048Z,27.56
2023-08-11T05:49:53.908Z,27.71
2023-08-11T05:52:20.595Z,27.60
2023-08-11T05:54:47.207Z,27.50
2023-08-11T05:57:13.883Z,27.82
2023-08-11T05:59:41.889Z,27.84
2023-08-11T06:02:08.538Z,27.67
2023-08-11T06:04:36.292Z,27.76
2023-08-11T06:07:03.066Z,27.90
2023-08-11T06:09:29.966Z,27.76
2023-08-11T06:11:58.538Z,27.77
2023-08-11T06:14:25.328Z,27.74
2023-08-11T06:16:53.310Z,28.05
2023-08-11T06:19:21.546Z,28.05
2023-08-11T06:21:48.277Z,27.97
2023-08-11T06:24:14.937Z,27.95
2023-08-11T06:26:41.640Z,28.10
2023-08-11T06:29:08.308Z,28.31
2023-08-11T06:31:36.606Z,28.15
2023-08-11T06:34:04.787Z,28.33
2023-08-11T06:36:31.454Z,28.42
2023-08-11T06:38:58.360Z,28.26
2023-08-11T06:41:25.352Z,28.39
2023-08-11T06:43:51.999Z,28.41
2023-08-11T06:46:18.669Z,28.61
2023-08-11T06:48:48.353Z,28.54
2023-08-11T06:51:16.356Z,28.83
2023-08-11T06:53:42.985Z,29.16
2023-08-11T06:56:10.136Z,29.21
2023-08-11T06:58:36.792Z,29.36
2023-08-11T07:01:03.457Z,29.05
2023-08-11T07:03:30.297Z,29.32
2023-08-11T07:05:57.023Z,29.23
2023-08-11T07:08:25.101Z,29.18
2023-08-11T07:10:51.742Z,29.11
2023-08-11T07:13:18.664Z,29.20
2023-08-11T07:15:45.374Z,29.51
2023-08-11T07:18:12.464Z,29.76
2023-08-11T07:20:41.787Z,29.98
2023-08-11T07:23:08.511Z,30.11
2023-08-11T07:25:36.893Z,30.26
2023-08-11T07:28:04.211Z,30.25
2023-08-11T07:30:30.860Z,30.30
2023-08-11T07:32:57.995Z,30.32
2023-08-11T07:35:24.953Z,30.15
2023-08-11T07:37:51.589Z,30.25
2023-08-11T07:40:20.303Z,30.30
2023-08-11T07:42:55.845Z,30.33
2023-08-11T07:45:22.492Z,30.31
2023-08-11T07:47:51.975Z,30.26
2023-08-11T07:50:18.817Z,30.38
2023-08-11T07:52:45.483Z,30.51
2023-08-11T07:55:12.251Z,30.73
2023-08-11T07:57:39.411Z,30.79
2023-08-11T08:00:08.618Z,30.63
2023-08-11T08:02:35.319Z,30.38
2023-08-11T08:05:11.651Z,30.67
2023-08-11T08:07:39.769Z,30.93
2023-08-11T08:10:08.739Z,30.84
2023-08-11T08:12:37.161Z,30.99
2023-08-11T08:15:05.354Z,31.17
2023-08-11T08:17:33.435Z,31.10
2023-08-11T08:20:00.147Z,30.89
2023-08-11T08:22:26.987Z,30.92
2023-08-11T08:24:53.710Z,31.01
2023-08-11T08:27:20.435Z,31.28
2023-08-11T08:29:49.370Z,31.16
2023-08-11T08:32:16.033Z,31.22
2023-08-11T08:34:44.068Z,31.34
2023-08-11T08:37:10.944Z,31.31
2023-08-11T08:39:42.205Z,31.61
2023-08-11T08:42:09.990Z,31.48
2023-08-11T08:44:37.636Z,31.63
2023-08-11T08:47:10.358Z,31.70
2023-08-11T08:49:37.471Z,31.89
2023-08-11T08:52:06.856Z,31.49
2023-08-11T08:54:33.737Z,31.50
2023-08-11T08:57:01.481Z,31.49
2023-08-11T08:59:28.626Z,31.64
2023-08-11T09:01:55.715Z,31.57
2023-08-11T09:04:23.649Z,31.74
2023-08-11T09:06:53.376Z,31.77
2023-08-11T09:09:21.359Z,31.37
2023-08-11T09:11:48.149Z,31.47
2023-08-11T09:14:20.750Z,31.63
2023-08-11T09:16:47.684Z,31.56
2023-08-11T09:19:14.384Z,31.46
2023-08-11T09:21:42.092Z,31.70
2023-08-11T09:24:10.019Z,31.93
2023-08-11T09:26:38.139Z,31.85
2023-08-11T09:29:05.553Z,31.55
2023-08-11T09:31:32.337Z,31.48
2023-08-11T09:34:11.538Z,31.56
2023-08-11T09:36:38.195Z,31.75
2023-08-11T09:39:07.978Z,31.64
2023-08-11T09:41:40.811Z,31.68
2023-08-11T09:44:07.749Z,31.65
2023-08-11T09:46:37.340Z,31.61
2023-08-11T09:49:04.309Z,31.17
2023-08-11T09:51:33.986Z,31.32
2023-08-11T09:54:04.351Z,31.40
2023-08-11T09:56:32.465Z,31.58
2023-08-11T09:59:03.295Z,31.46
2023-08-11T10:01:34.451Z,31.01
2023-08-11T10:04:05.957Z,31.34
2023-08-11T10:06:33.229Z,31.48
2023-08-11T10:09:11.050Z,31.52
2023-08-11T10:11:38.210Z,31.21
2023-08-11T10:14:06.486Z,31.21
2023-08-11T10:16:33.941Z,31.13
2023-08-11T10:19:01.969Z,31.19
2023-08-11T10:21:28.787Z,31.50
2023-08-11T10:23:55.614Z,31.24
2023-08-11T10:26:23.193Z,31.12
2023-08-11T10:28:51.703Z,30.88
2023-08-11T10:31:23.398Z,31.09
2023-08-11T10:33:50.874Z,31.10
2023-08-11T10:36:22.994Z,31.08
2023-08-11T10:39:00.428Z,31.08
2023-08-11T10:41:28.542Z,31.04
2023-08-11T10:43:58.594Z,31.00
2023-08-11T10:46:33.040Z,31.22
2023-08-11T10:49:21.482Z,31.28
2023-08-11T10:51:51.223Z,31.32
2023-08-11T10:54:23.806Z,31.15
2023-08-11T10:56:52.779Z,31.37
2023-08-11T10:59:22.814Z,31.00
2023-08-11T11:01:54.058Z,31.18
2023-08-11T11:04:22.599Z,31.21
2023-08-11T11:06:50.516Z,31.00
2023-08-11T11:09:19.172Z,31.24
2023-08-11T11:11:47.465Z,31.37
2023-08-11T11:14:14.478Z,31.16
2023-08-11T11:16:41.806Z,31.48
2023-08-11T11:19:10.878Z,31.34
2023-08-11T11:21:39.881Z,31.57
2023-08-11T11:24:09.651Z,31.51
2023-08-11T11:26:36.322Z,31.82
2023-08-11T11:29:04.977Z,31.73
2023-08-11T11:31:33.870Z,31.63
2023-08-11T11:34:01.547Z,31.66
2023-08-11T11:36:30.839Z,31.68
2023-08-11T11:38:57.624Z,31.77
2023-08-11T11:41:27.031Z,31.91
2023-08-11T11:43:54.024Z,31.78
2023-08-11T11:46:21.816Z,31.93
2023-08-11T11:48:50.927Z,31.86
2023-08-11T11:51:19.052Z,32.03
2023-08-11T11:53:52.751Z,31.74
2023-08-11T11:56:19.706Z,31.67
2023-08-11T11:58:46.950Z,31.56
2023-08-11T12:01:15.797Z,31.84
2023-08-11T12:03:44.268Z,31.77
2023-08-11T12:06:11.114Z,31.88
2023-08-11T12:08:40.869Z,31.78
2023-08-11T12:11:10.201Z,31.78
2023-08-11T12:13:39.219Z,31.75
2023-08-11T12:16:07.721Z,31.62
2023-08-11T12:18:35.048Z,31.47
2023-08-11T12:21:02.262Z,31.44
2023-08-11T12:23:29.139Z,31.56
2023-08-11T12:25:56.138Z,31.66
2023-08-11T12:28:24.407Z,31.75
2023-08-11T12:30:51.169Z,31.71
2023-08-11T12:33:20.298Z,31.84
2023-08-11T12:35:48.112Z,31.83
2023-08-11T12:38:15.247Z,31.72
2023-08-11T12:40:42.244Z,31.43
2023-08-11T12:43:11.356Z,31.71
2023-08-11T12:45:43.268Z,31.61
2023-08-11T12:48:10.289Z,31.89
2023-08-11T12:50:37.737Z,32.11
2023-08-11T12:53:05.748Z,32.13
2023-08-11T12:55:33.430Z,32.11
2023-08-11T12:58:01.189Z,32.10
2023-08-11T13:00:30.735Z,31.96
2023-08-11T13:02:58.812Z,32.02
2023-08-11T13:05:25.682Z,32.02
2023-08-11T13:07:53.645Z,32.01
2023-08-11T13:10:20.346Z,32.22
2023-08-11T13:12:49.051Z,32.39
2023-08-11T13:15:15.993Z,32.32
2023-08-11T13:17:44.157Z,32.25
2023-08-11T13:20:12.775Z,32.63
2023-08-11T13:22:41.984Z,32.82
2023-08-11T13:25:09.517Z,32.80
2023-08-11T13:27:37.453Z,32.70
2023-08-11T13:30:05.273Z,32.81
2023-08-11T13:32:32.045Z,32.85
2023-08-11T13:34:58.846Z,33.00
2023-08-11T13:37:28.308Z,33.10
2023-08-11T13:39:54.863Z,33.15
2023-08-11T13:42:21.554Z,33.08
2023-08-11T13:44:48.175Z,33.07
2023-08-11T13:47:14.813Z,33.55
2023-08-11T13:49:41.615Z,33.75
2023-08-11T13:52:08.625Z,33.87
2023-08-11T13:54:37.668Z,33.81
2023-08-11T13:57:04.333Z,33.92
2023-08-11T13:59:31.215Z,33.83
2023-08-11T14:01:58.254Z,33.97
2023-08-11T14:04:24.967Z,34.32
2023-08-11T14:06:51.599Z,34.47
2023-08-11T14:09:18.259Z,34.52
2023-08-11T14:11:49.479Z,34.85
2023-08-11T14:14:16.172Z,34.65
2023-08-11T14:16:43.153Z,34.48
2023-08-11T14:19:10.088Z,34.53
2023-08-11T14:21:36.881Z,34.41
2023-08-11T14:24:07.117Z,34.44
2023-08-11T14:26:33.869Z,34.29
2023-08-11T14:29:01.840Z,34.47
2023-08-11T14:31:28.411Z,34.67
2023-08-11T14:33:55.104Z,34.92
2023-08-11T14:36:21.871Z,34.90
2023-08-11T14:38:48.480Z,34.89
2023-08-11T14:41:15.060Z,34.97
2023-08-11T14:43:43.776Z,35.30
2023-08-11T14:46:11.753Z,35.05
2023-08-11T14:48:38.458Z,35.54
2023-08-11T14:51:05.804Z,35.62
2023-08-11T14:53:32.735Z,35.40
2023-08-11T14:55:59.680Z,35.64
2023-08-11T14:58:26.350Z,35.62
2023-08-11T15:00:53.495Z,35.62
2023-08-11T15:03:21.714Z,35.70
2023-08-11T15:05:48.363Z,35.60
2023-08-11T15:08:14.986Z,35.76
2023-08-11T15:10:41.808Z,35.80
2023-08-11T15:13:08.760Z,35.85
2023-08-11T15:15:35.366Z,35.87
2023-08-11T15:18:02.081Z,35.85
2023-08-11T15:20:30.324Z,35.69
2023-08-11T15:22:57.559Z,35.74
2023-08-11T15:25:24.125Z,35.70
2023-08-11T15:27:50.919Z,35.67
2023-08-11T15:30:17.650Z,35.69
2023-08-11T15:32:44.313Z,35.38
2023-08-11T15:35:11.127Z,35.17
2023-08-11T15:37:39.148Z,34.84
2023-08-11T15:40:07.263Z,34.46
2023-08-11T15:42:34.090Z,34.24
2023-08-11T15:45:00.720Z,33.98
2023-08-11T15:47:27.474Z,33.97
2023-08-11T15:49:54.321Z,33.96
2023-08-11T15:52:21.113Z,33.71
2023-08-11T15:54:49.066Z,33.65
2023-08-11T15:57:15.842Z,33.58
2023-08-11T15:59:42.500Z,33.43
2023-08-11T16:02:11.026Z,33.32
2023-08-11T16:04:37.990Z,33.25
2023-08-11T16:07:05.087Z,33.03
2023-08-11T16:09:31.908Z,32.91
2023-08-11T16:11:59.955Z,32.77
2023-08-11T16:14:26.547Z,32.67
2023-08-11T16:16:53.251Z,32.60
2023-08-11T16:19:20.041Z,32.73
2023-08-11T16:21:46.697Z,32.68
2023-08-11T16:24:16.285Z,32.60
2023-08-11T16:26:43.493Z,32.29
2023-08-11T16:29:11.728Z,32.23
2023-08-11T16:31:38.575Z,32.33
2023-08-11T16:34:05.731Z,32.23
2023-08-11T16:36:32.428Z,32.14
2023-08-11T16:38:59.036Z,32.30
2023-08-11T16:41:27.936Z,32.11
2023-08-11T16:43:54.562Z,32.16
2023-08-11T16:46:22.618Z,32.08
2023-08-11T16:48:51.222Z,32.10
2023-08-11T16:51:17.996Z,32.02
2023-08-11T16:53:44.546Z,32.01
2023-08-11T16:56:11.175Z,32.01
2023-08-11T16:58:37.836Z,31.94
2023-08-11T17:01:06.588Z,32.03
2023-08-11T17:03:37.756Z,32.01
2023-08-11T17:06:04.476Z,31.92
2023-08-11T17:08:31.394Z,31.72
2023-08-11T17:10:58.661Z,31.61
2023-08-11T17:13:25.365Z,31.47
2023-08-11T17:15:52.140Z,31.48
2023-08-11T17:18:18.920Z,31.33
2023-08-11T17:20:46.977Z,31.29
2023-08-11T17:23:13.769Z,31.19
2023-08-11T17:25:40.447Z,31.20
2023-08-11T17:28:07.201Z,31.17
2023-08-11T17:30:33.828Z,31.12
2023-08-11T17:33:00.508Z,31.15
2023-08-11T17:35:27.108Z,31.04
2023-08-11T17:37:59.971Z,30.92
2023-08-11T17:40:26.616Z,30.84
2023-08-11T17:42:56.316Z,30.78
2023-08-11T17:45:23.377Z,30.59
2023-08-11T17:47:50.031Z,30.54
2023-08-11T17:50:17.168Z,30.35
2023-08-11T17:52:47.374Z,30.28
2023-08-11T17:55:15.922Z,30.17
2023-08-11T17:57:42.815Z,30.12
2023-08-11T18:00:10.551Z,29.98
2023-08-11T18:02:37.469Z,29.94
2023-08-11T18:05:04.369Z,29.84
2023-08-11T18:07:31.126Z,29.82
2023-08-11T18:09:58.295Z,29.80
2023-08-11T18:12:26.351Z,29.69
2023-08-11T18:14:54.014Z,29.65
2023-08-11T18:17:20.914Z,29.60
2023-08-11T18:19:47.789Z,29.50
2023-08-11T18:22:14.473Z,29.43
2023-08-11T18:24:41.284Z,29.38
2023-08-11T18:27:08.249Z,29.39
2023-08-11T18:29:36.327Z,29.36
2023-08-11T18:32:03.343Z,29.35
2023-08-11T18:34:29.991Z,29.26
2023-08-11T18:36:57.033Z,29.12
2023-08-11T18:39:23.734Z,29.07
2023-08-11T18:41:50.339Z,28.95
2023-08-11T18:44:17.099Z,28.83
2023-08-11T18:46:45.361Z,28.71
2023-08-11T18:49:12.226Z,28.67
2023-08-11T18:51:38.888Z,28.56
2023-08-11T18:54:06.044Z,28.50
2023-08-11T18:56:32.673Z,28.39
2023-08-11T18:58:59.381Z,28.34
2023-08-11T19:01:26.026Z,28.30
2023-08-11T19:03:55.418Z,28.30
2023-08-11T19:06:22.150Z,28.32
2023-08-11T19:08:48.748Z,28.23
2023-08-11T19:11:15.584Z,28.21
2023-08-11T19:13:43.207Z,28.17
2023-08-11T19:16:11.243Z,28.06
2023-08-11T19:18:37.913Z,28.06
2023-08-11T19:21:05.933Z,27.98
2023-08-11T19:23:32.536Z,27.91
2023-08-11T19:25:59.254Z,27.86
2023-08-11T19:28:25.926Z,27.80
2023-08-11T19:30:52.702Z,27.77
2023-08-11T19:33:19.370Z,27.76
2023-08-11T19:35:48.943Z,27.69
2023-08-11T19:38:17.271Z,27.69
2023-08-11T19:40:45.019Z,27.68
2023-08-11T19:43:11.909Z,27.65
2023-08-11T19:45:40.461Z,27.48
2023-08-11T19:48:07.506Z,27.52
2023-08-11T19:50:34.290Z,27.51
2023-08-11T19:53:00.887Z,27.47
2023-08-11T19:55:28.951Z,27.43
2023-08-11T19:57:55.709Z,27.36
2023-08-11T20:00:22.489Z,27.27
2023-08-11T20:02:50.625Z,27.27
2023-08-11T20:05:17.949Z,27.22
2023-08-11T20:07:44.534Z,27.16
2023-08-11T20:10:11.494Z,27.17
2023-08-11T20:12:41.919Z,27.12
2023-08-11T20:15:09.725Z,27.12
2023-08-11T20:17:36.404Z,27.10
2023-08-11T20:20:03.780Z,27.06
2023-08-11T20:22:30.444Z,27.07
2023-08-11T20:24:57.320Z,26.94
2023-08-11T20:27:24.163Z,27.09
2023-08-11T20:29:52.188Z,27.12
2023-08-11T20:32:18.865Z,27.09
2023-08-11T20:34:45.491Z,27.10
2023-08-11T20:37:12.472Z,27.13
2023-08-11T20:39:39.501Z,27.14
2023-08-11T20:42:06.123Z,27.08
2023-08-11T20:44:32.782Z,27.10
2023-08-11T20:47:00.748Z,27.04
2023-08-11T20:49:27.334Z,27.04
2023-08-11T20:51:53.962Z,27.05
2023-08-11T20:54:20.724Z,27.03
2023-08-11T20:56:47.350Z,26.94
2023-08-11T20:59:14.117Z,26.99
2023-08-11T21:01:40.762Z,26.91
2023-08-11T21:04:09.569Z,26.94
2023-08-11T21:06:36.276Z,26.87
2023-08-11T21:09:03.361Z,26.97
2023-08-11T21:11:30.137Z,26.97
2023-08-11T21:13:56.923Z,26.69
2023-08-11T21:16:23.695Z,26.56
2023-08-11T21:18:50.355Z,25.94
2023-08-11T21:21:18.339Z,26.02
2023-08-11T21:23:45.115Z,25.99
2023-08-11T21:26:11.736Z,25.67
2023-08-11T21:28:38.647Z,25.58
2023-08-11T21:31:17.658Z,25.53
2023-08-11T21:33:45.056Z,25.55
2023-08-11T21:36:11.809Z,25.51
2023-08-11T21:38:40.237Z,25.42
2023-08-11T21:41:07.179Z,25.34
2023-08-11T21:43:33.815Z,25.46
2023-08-11T21:46:00.502Z,25.18
2023-08-11T21:48:27.220Z,25.02
2023-08-11T21:50:53.966Z,24.84
2023-08-11T21:53:23.590Z,24.76
2023-08-11T21:55:52.718Z,24.69
2023-08-11T21:58:19.521Z,24.57
2023-08-11T22:00:46.265Z,24.09
2023-08-11T22:03:13.173Z,23.94
2023-08-11T22:05:40.259Z,24.16
2023-08-11T22:08:06.910Z,24.25
2023-08-11T22:10:33.615Z,24.22
2023-08-11T22:13:01.625Z,24.13
2023-08-11T22:15:28.491Z,24.10
2023-08-11T22:17:55.141Z,23.92
2023-08-11T22:20:21.916Z,23.83
2023-08-11T22:22:48.525Z,23.88
2023-08-11T22:25:15.248Z,23.54
2023-08-11T22:27:42.093Z,23.43
2023-08-11T22:30:11.300Z,23.38
2023-08-11T22:32:37.926Z,23.44
2023-08-11T22:35:06.672Z,23.45
2023-08-11T22:37:33.296Z,23.65
2023-08-11T22:39:59.966Z,23.60
2023-08-11T22:42:27.907Z,23.77
2023-08-11T22:44:55.450Z,23.81
2023-08-11T22:47:23.848Z,23.79
2023-08-11T22:49:50.830Z,23.86
2023-08-11T22:52:17.945Z,23.77
2023-08-11T22:54:44.536Z,23.72
2023-08-11T22:57:11.497Z,23.77
2023-08-11T22:59:38.584Z,23.80
2023-08-11T23:02:05.362Z,23.77
2023-08-11T23:04:33.399Z,23.66
2023-08-11T23:07:00.214Z,23.51
2023-08-11T23:09:26.794Z,23.33
2023-08-11T23:11:53.571Z,23.29
2023-08-11T23:14:20.198Z,23.21
2023-08-11T23:16:46.882Z,23.22
2023-08-11T23:19:13.994Z,23.28
2023-08-11T23:21:42.186Z,23.34
2023-08-11T23:24:09.378Z,23.30
2023-08-11T23:26:36.360Z,23.26
2023-08-11T23:29:03.247Z,23.25
2023-08-11T23:31:30.062Z,23.23
2023-08-11T23:33:57.466Z,23.16
2023-08-11T23:36:24.112Z,23.16
2023-08-11T23:38:52.145Z,23.26
2023-08-11T23:41:18.758Z,23.41
2023-08-11T23:43:45.578Z,23.38
2023-08-11T23:46:12.224Z,23.47
2023-08-11T23:48:39.127Z,23.42
2023-08-11T23:51:05.801Z,23.35
2023-08-11T23:53:32.573Z,23.35
2023-08-11T23:56:00.667Z,23.31
2023-08-11T23:58:27.364Z,23.41
